createdAt,value
2023-04-10T00:00:11.044Z,6.56
2023-04-10T00:02:40.047Z,6.66
2023-04-10T00:05:09.690Z,6.46
2023-04-10T00:07:38.450Z,6.65
2023-04-10T00:10:08.114Z,6.70
2023-04-10T00:12:37.290Z,6.52
2023-04-10T00:15:08.500Z,6.45
2023-04-10T00:17:37.448Z,6.68
2023-04-10T00:20:07.436Z,6.79
2023-04-10T00:22:36.130Z,6.63
2023-04-10T00:25:06.566Z,6.56
2023-04-10T00:27:35.257Z,6.62
2023-04-10T00:30:04.034Z,6.66
2023-04-10T00:32:34.446Z,6.78
2023-04-10T00:35:03.975Z,6.64
2023-04-10T00:37:33.030Z,6.70
2023-04-10T00:40:01.972Z,6.60
2023-04-10T00:42:30.590Z,6.54
2023-04-10T00:44:59.588Z,6.45
2023-04-10T00:47:28.711Z,6.50
2023-04-10T00:50:01.681Z,6.68
2023-04-10T00:52:31.063Z,6.62
2023-04-10T00:54:59.798Z,6.40
2023-04-10T00:57:28.548Z,6.47
2023-04-10T00:59:57.514Z,6.35
2023-04-10T01:02:26.491Z,6.27
2023-04-10T01:04:55.272Z,6.37
2023-04-10T01:07:34.679Z,6.42
2023-04-10T01:10:07.372Z,6.36
2023-04-10T01:12:45.724Z,6.00
2023-04-10T01:15:16.953Z,6.13
2023-04-10T01:17:51.358Z,6.08
2023-04-10T01:20:23.107Z,6.12
2023-04-10T01:23:09.995Z,6.33
2023-04-10T01:25:44.932Z,6.26
2023-04-10T01:28:49.681Z,6.35
2023-04-10T01:31:21.495Z,6.26
2023-04-10T01:33:52.813Z,6.20
2023-04-10T01:36:26.228Z,6.34
2023-04-10T01:38:56.313Z,6.43
2023-04-10T01:41:26.233Z,6.54
2023-04-10T01:43:57.097Z,6.57
2023-04-10T01:46:26.598Z,6.66
2023-04-10T01:48:56.735Z,6.78
2023-04-10T01:51:26.358Z,6.73
2023-04-10T01:53:55.753Z,6.47
2023-04-10T01:56:25.231Z,6.83
2023-04-10T01:58:53.856Z,6.65
2023-04-10T02:01:29.650Z,6.67
2023-04-10T02:03:59.945Z,6.82
2023-04-10T02:06:35.563Z,6.57
2023-04-10T02:09:10.437Z,6.63
2023-04-10T02:11:43.653Z,6.73
2023-04-10T02:14:13.123Z,6.70
2023-04-10T02:16:44.233Z,6.56
2023-04-10T02:19:13.167Z,6.44
2023-04-10T02:21:43.865Z,6.50
2023-04-10T02:24:12.501Z,6.39
2023-04-10T02:26:48.090Z,6.53
2023-04-10T02:29:17.157Z,6.34
2023-04-10T02:31:47.735Z,6.43
2023-04-10T02:34:16.568Z,6.41
2023-04-10T02:36:45.506Z,6.33
2023-04-10T02:39:14.218Z,6.32
2023-04-10T02:41:46.504Z,6.35
2023-04-10T02:44:15.896Z,6.58
2023-04-10T02:46:44.733Z,6.67
2023-04-10T02:49:14.979Z,6.60
2023-04-10T02:51:43.934Z,6.48
2023-04-10T02:54:12.620Z,6.48
2023-04-10T02:56:43.123Z,6.35
2023-04-10T02:59:12.200Z,6.40
2023-04-10T03:01:41.079Z,6.49
2023-04-10T03:04:09.941Z,6.17
2023-04-10T03:06:40.560Z,6.34
2023-04-10T03:09:09.306Z,6.24
2023-04-10T03:11:38.217Z,6.25
2023-04-10T03:14:09.719Z,6.18
2023-04-10T03:16:38.469Z,6.27
2023-04-10T03:19:07.622Z,5.95
2023-04-10T03:21:36.662Z,6.04
2023-04-10T03:24:07.515Z,6.11
2023-04-10T03:26:36.675Z,6.10
2023-04-10T03:29:05.450Z,5.85
2023-04-10T03:31:35.946Z,6.04
2023-04-10T03:34:04.984Z,6.14
2023-04-10T03:36:33.654Z,5.95
2023-04-10T03:39:02.476Z,6.14
2023-04-10T03:41:33.097Z,5.98
2023-04-10T03:44:05.343Z,6.02
2023-04-10T03:46:34.380Z,6.02
2023-04-10T03:49:03.330Z,6.05
2023-04-10T03:51:32.424Z,6.10
2023-04-10T03:54:01.305Z,6.17
2023-04-10T03:56:30.408Z,5.99
2023-04-10T03:59:01.311Z,6.14
2023-04-10T04:01:30.737Z,6.07
2023-04-10T04:04:01.121Z,6.03
2023-04-10T04:06:31.199Z,6.16
2023-04-10T04:09:01.862Z,5.87
2023-04-10T04:11:31.461Z,5.67
2023-04-10T04:14:01.553Z,5.67
2023-04-10T04:16:30.747Z,6.00
2023-04-10T04:19:00.232Z,5.88
2023-04-10T04:21:29.350Z,5.86
2023-04-10T04:23:58.523Z,6.09
2023-04-10T04:26:27.432Z,6.03
2023-04-10T04:28:58.214Z,5.96
2023-04-10T04:31:33.221Z,5.96
2023-04-10T04:34:03.178Z,5.86
2023-04-10T04:36:32.269Z,5.92
2023-04-10T04:39:01.197Z,5.98
2023-04-10T04:41:32.276Z,6.07
2023-04-10T04:44:02.218Z,6.18
2023-04-10T04:46:32.769Z,6.16
2023-04-10T04:49:01.886Z,6.15
2023-04-10T04:51:30.909Z,6.14
2023-04-10T04:54:00.808Z,6.25
2023-04-10T04:56:30.057Z,6.31
2023-04-10T04:58:59.664Z,6.41
2023-04-10T05:01:28.736Z,6.33
2023-04-10T05:03:59.845Z,6.14
2023-04-10T05:06:31.696Z,6.25
2023-04-10T05:09:02.379Z,6.39
2023-04-10T05:11:31.733Z,6.57
2023-04-10T05:14:01.150Z,6.34
2023-04-10T05:16:30.664Z,6.74
2023-04-10T05:19:02.418Z,6.94
2023-04-10T05:21:39.697Z,6.59
2023-04-10T05:24:09.440Z,6.75
2023-04-10T05:26:38.795Z,6.63
2023-04-10T05:29:07.676Z,6.59
2023-04-10T05:31:36.593Z,6.83
2023-04-10T05:34:07.995Z,6.76
2023-04-10T05:36:37.497Z,7.19
2023-04-10T05:39:06.814Z,7.20
2023-04-10T05:41:36.137Z,7.67
2023-04-10T05:44:05.960Z,7.54
2023-04-10T05:46:35.143Z,7.58
2023-04-10T05:49:07.963Z,7.41
2023-04-10T05:51:37.222Z,7.16
2023-04-10T05:54:06.188Z,7.44
2023-04-10T05:56:40.258Z,7.47
2023-04-10T05:59:09.033Z,7.56
2023-04-10T06:01:40.415Z,7.57
2023-04-10T06:04:11.321Z,7.66
2023-04-10T06:06:40.887Z,7.83
2023-04-10T06:09:09.751Z,7.79
2023-04-10T06:11:40.606Z,7.81
2023-04-10T06:14:09.584Z,8.01
2023-04-10T06:16:39.126Z,8.24
2023-04-10T06:19:07.941Z,8.39
2023-04-10T06:21:39.394Z,8.33
2023-04-10T06:24:08.417Z,8.29
2023-04-10T06:26:38.483Z,8.34
2023-04-10T06:29:07.191Z,8.66
2023-04-10T06:31:36.597Z,8.71
2023-04-10T06:34:05.757Z,8.77
2023-04-10T06:36:35.107Z,8.86
2023-04-10T06:39:06.641Z,8.96
2023-04-10T06:41:35.479Z,8.96
2023-04-10T06:44:06.779Z,8.92
2023-04-10T06:46:35.548Z,8.96
2023-04-10T06:49:04.386Z,9.16
2023-04-10T06:51:33.379Z,9.35
2023-04-10T06:54:01.972Z,9.24
2023-04-10T06:56:33.116Z,9.53
2023-04-10T06:59:01.826Z,9.79
2023-04-10T07:01:30.458Z,9.82
2023-04-10T07:03:59.185Z,9.74
2023-04-10T07:06:29.022Z,9.98
2023-04-10T07:08:57.682Z,10.07
2023-04-10T07:11:26.391Z,10.22
2023-04-10T07:13:58.559Z,10.59
2023-04-10T07:16:27.569Z,10.68
2023-04-10T07:18:57.174Z,10.76
2023-04-10T07:21:27.222Z,10.83
2023-04-10T07:23:56.365Z,11.08
2023-04-10T07:26:25.525Z,11.30
2023-04-10T07:28:54.414Z,11.10
2023-04-10T07:31:25.027Z,11.46
2023-04-10T07:33:53.663Z,11.27
2023-04-10T07:36:22.341Z,11.22
2023-04-10T07:38:51.372Z,11.19
2023-04-10T07:41:20.049Z,11.38
2023-04-10T07:43:48.755Z,11.37
2023-04-10T07:46:18.238Z,11.49
2023-04-10T07:48:49.619Z,11.61
2023-04-10T07:51:18.686Z,11.67
2023-04-10T07:53:47.366Z,11.71
2023-04-10T07:56:19.568Z,12.07
2023-04-10T07:58:48.950Z,12.14
2023-04-10T08:01:17.637Z,12.11
2023-04-10T08:03:48.738Z,12.50
2023-04-10T08:06:17.539Z,12.54
2023-04-10T08:08:46.529Z,12.80
2023-04-10T08:11:25.750Z,12.73
2023-04-10T08:13:54.908Z,13.20
2023-04-10T08:16:25.366Z,13.07
2023-04-10T08:18:57.597Z,13.19
2023-04-10T08:21:27.281Z,13.43
2023-04-10T08:23:57.691Z,13.34
2023-04-10T08:26:27.395Z,13.36
2023-04-10T08:28:58.415Z,13.50
2023-04-10T08:31:28.741Z,13.53
2023-04-10T08:34:01.872Z,13.74
2023-04-10T08:36:31.577Z,13.97
2023-04-10T08:39:00.812Z,13.83
2023-04-10T08:41:29.606Z,13.69
2023-04-10T08:43:58.604Z,13.92
2023-04-10T08:46:27.660Z,14.05
2023-04-10T08:49:06.680Z,14.27
2023-04-10T08:51:39.005Z,14.17
2023-04-10T08:54:09.034Z,13.95
2023-04-10T08:56:39.160Z,13.97
2023-04-10T08:59:09.012Z,14.08
2023-04-10T09:01:38.008Z,14.26
2023-04-10T09:04:08.408Z,14.18
2023-04-10T09:06:37.108Z,14.07
2023-04-10T09:09:07.033Z,14.02
2023-04-10T09:12:00.701Z,14.43
2023-04-10T09:14:31.885Z,14.77
2023-04-10T09:17:18.152Z,14.46
2023-04-10T09:19:49.479Z,14.60
2023-04-10T09:22:18.408Z,14.51
2023-04-10T09:24:48.525Z,14.78
2023-04-10T09:27:32.630Z,14.92
2023-04-10T09:30:02.199Z,15.02
2023-04-10T09:32:41.724Z,14.92
2023-04-10T09:35:13.611Z,14.86
2023-04-10T09:37:43.434Z,14.97
2023-04-10T09:40:21.975Z,15.17
2023-04-10T09:42:50.731Z,15.30
2023-04-10T09:45:20.167Z,15.03
2023-04-10T09:48:02.999Z,15.39
2023-04-10T09:50:40.914Z,15.58
2023-04-10T09:53:10.387Z,15.83
2023-04-10T09:55:41.890Z,15.82
2023-04-10T09:58:11.527Z,15.86
2023-04-10T10:00:42.457Z,16.09
2023-04-10T10:03:17.536Z,15.94
2023-04-10T10:05:49.410Z,16.31
2023-04-10T10:08:18.751Z,15.88
2023-04-10T10:10:49.725Z,16.17
2023-04-10T10:13:24.057Z,16.15
2023-04-10T10:15:58.218Z,15.82
2023-04-10T10:18:34.351Z,16.12
2023-04-10T10:21:05.018Z,16.18
2023-04-10T10:23:34.738Z,16.40
2023-04-10T10:26:06.656Z,15.95
2023-04-10T10:28:37.228Z,15.64
2023-04-10T10:31:06.741Z,15.63
2023-04-10T10:33:37.259Z,15.66
2023-04-10T10:36:08.539Z,15.61
2023-04-10T10:38:41.276Z,15.66
2023-04-10T10:41:14.254Z,15.44
2023-04-10T10:43:51.982Z,15.83
2023-04-10T10:46:26.155Z,15.69
2023-04-10T10:48:58.933Z,15.98
2023-04-10T10:51:45.384Z,15.93
2023-04-10T10:54:30.888Z,15.92
2023-04-10T10:56:59.611Z,15.60
2023-04-10T10:59:59.359Z,15.36
2023-04-10T11:02:28.149Z,15.38
2023-04-10T11:04:57.256Z,15.00
2023-04-10T11:08:06.027Z,15.01
2023-04-10T11:11:05.657Z,15.02
2023-04-10T11:13:35.083Z,15.54
2023-04-10T11:16:05.349Z,15.61
2023-04-10T11:19:13.220Z,15.96
2023-04-10T11:22:05.385Z,16.21
2023-04-10T11:24:57.660Z,16.11
2023-04-10T11:27:46.246Z,15.78
2023-04-10T11:30:36.973Z,15.74
2023-04-10T11:33:06.700Z,15.90
2023-04-10T11:35:35.483Z,16.39
2023-04-10T11:38:18.148Z,16.29
2023-04-10T11:41:07.187Z,16.38
2023-04-10T11:43:37.654Z,16.78
2023-04-10T11:46:08.681Z,16.85
2023-04-10T11:48:38.019Z,16.96
2023-04-10T11:51:14.000Z,16.92
2023-04-10T11:53:43.172Z,16.59
2023-04-10T11:56:21.129Z,16.24
2023-04-10T11:58:54.964Z,15.54
2023-04-10T12:01:24.597Z,15.60
2023-04-10T12:03:53.790Z,15.69
2023-04-10T12:06:23.168Z,15.85
2023-04-10T12:08:52.013Z,16.15
2023-04-10T12:11:22.830Z,16.05
2023-04-10T12:13:55.777Z,16.31
2023-04-10T12:16:26.546Z,16.08
2023-04-10T12:18:55.833Z,16.57
2023-04-10T12:21:24.817Z,16.51
2023-04-10T12:23:53.442Z,16.72
2023-04-10T12:26:22.034Z,15.82
2023-04-10T12:28:54.831Z,15.93
2023-04-10T12:31:31.094Z,15.94
2023-04-10T12:34:02.240Z,15.90
2023-04-10T12:36:32.164Z,15.91
2023-04-10T12:39:05.335Z,15.83
2023-04-10T12:41:35.139Z,15.83
2023-04-10T12:44:12.657Z,15.66
2023-04-10T12:46:41.839Z,15.96
2023-04-10T12:49:12.437Z,15.46
2023-04-10T12:51:48.674Z,15.36
2023-04-10T12:54:31.399Z,15.52
2023-04-10T12:57:00.616Z,15.24
2023-04-10T12:59:31.623Z,15.44
2023-04-10T13:02:00.640Z,15.35
2023-04-10T13:04:31.195Z,15.54
2023-04-10T13:07:00.042Z,15.84
2023-04-10T13:09:28.960Z,16.04
2023-04-10T13:11:58.477Z,15.92
2023-04-10T13:14:27.133Z,16.38
2023-04-10T13:16:57.444Z,16.70
2023-04-10T13:19:26.207Z,16.95
2023-04-10T13:21:54.857Z,17.02
2023-04-10T13:24:23.977Z,17.21
2023-04-10T13:26:52.612Z,17.08
2023-04-10T13:29:21.277Z,17.49
2023-04-10T13:31:50.400Z,17.57
2023-04-10T13:34:24.606Z,17.72
2023-04-10T13:36:53.554Z,18.33
2023-04-10T13:39:22.298Z,18.43
2023-04-10T13:41:51.064Z,18.67
2023-04-10T13:44:20.039Z,19.07
2023-04-10T13:46:48.737Z,18.81
2023-04-10T13:49:18.018Z,19.15
2023-04-10T13:51:48.574Z,18.88
2023-04-10T13:54:17.770Z,18.86
2023-04-10T13:56:46.962Z,18.86
2023-04-10T13:59:15.890Z,19.02
2023-04-10T14:01:44.640Z,18.86
2023-04-10T14:04:13.582Z,18.84
2023-04-10T14:06:42.189Z,18.72
2023-04-10T14:09:12.214Z,18.85
2023-04-10T14:11:41.265Z,19.02
2023-04-10T14:14:09.868Z,19.43
2023-04-10T14:16:38.515Z,19.43
2023-04-10T14:19:10.008Z,18.70
2023-04-10T14:21:40.523Z,18.61
2023-04-10T14:24:09.360Z,18.50
2023-04-10T14:26:39.350Z,18.52
2023-04-10T14:29:09.077Z,18.80
2023-04-10T14:31:50.569Z,19.05
2023-04-10T14:34:23.443Z,18.83
2023-04-10T14:36:56.003Z,19.16
2023-04-10T14:39:25.637Z,19.37
2023-04-10T14:41:57.071Z,19.74
2023-04-10T14:44:25.523Z,20.06
2023-04-10T14:46:54.361Z,20.11
2023-04-10T14:49:23.092Z,20.13
2023-04-10T14:51:51.736Z,20.23
2023-04-10T14:54:22.037Z,20.22
2023-04-10T14:56:50.931Z,20.19
2023-04-10T14:59:21.253Z,20.08
2023-04-10T15:01:50.057Z,20.63
2023-04-10T15:04:18.892Z,20.72
2023-04-10T15:06:47.711Z,20.54
2023-04-10T15:09:16.407Z,20.37
2023-04-10T15:11:45.165Z,20.35
2023-04-10T15:14:14.165Z,19.83
2023-04-10T15:16:44.205Z,18.94
2023-04-10T15:19:12.976Z,18.33
2023-04-10T15:21:44.692Z,18.37
2023-04-10T15:24:13.423Z,17.92
2023-04-10T15:26:45.078Z,18.22
2023-04-10T15:29:13.875Z,18.38
2023-04-10T15:31:46.742Z,17.89
2023-04-10T15:34:15.388Z,17.88
2023-04-10T15:36:44.262Z,17.72
2023-04-10T15:39:13.024Z,17.40
2023-04-10T15:41:41.643Z,17.61
2023-04-10T15:44:11.812Z,17.48
2023-04-10T15:46:40.490Z,17.50
2023-04-10T15:49:10.570Z,17.57
2023-04-10T15:51:39.561Z,17.59
2023-04-10T15:54:09.095Z,17.52
2023-04-10T15:56:40.784Z,17.24
2023-04-10T15:59:09.652Z,17.25
2023-04-10T16:01:38.279Z,17.22
2023-04-10T16:04:07.365Z,17.41
2023-04-10T16:06:37.440Z,17.31
2023-04-10T16:09:15.283Z,17.04
2023-04-10T16:11:53.847Z,16.97
2023-04-10T16:14:22.678Z,16.75
2023-04-10T16:16:51.997Z,17.10
2023-04-10T16:19:21.205Z,16.98
2023-04-10T16:21:53.684Z,16.64
2023-04-10T16:24:23.627Z,16.72
2023-04-10T16:26:55.205Z,16.69
2023-04-10T16:29:24.254Z,16.83
2023-04-10T16:31:53.079Z,16.54
2023-04-10T16:34:22.022Z,16.66
2023-04-10T16:36:52.283Z,16.47
2023-04-10T16:39:21.010Z,16.28
2023-04-10T16:41:51.912Z,16.16
2023-04-10T16:44:20.733Z,16.07
2023-04-10T16:46:49.448Z,16.16
2023-04-10T16:49:18.173Z,16.20
2023-04-10T16:51:49.229Z,16.35
2023-04-10T16:54:19.427Z,16.12
2023-04-10T16:56:51.654Z,16.17
2023-04-10T16:59:20.304Z,16.08
2023-04-10T17:01:49.226Z,16.16
2023-04-10T17:04:21.196Z,16.16
2023-04-10T17:06:50.298Z,16.36
2023-04-10T17:09:22.701Z,16.24
2023-04-10T17:11:53.260Z,16.15
2023-04-10T17:14:22.065Z,16.06
2023-04-10T17:16:54.219Z,16.02
2023-04-10T17:19:23.188Z,16.02
2023-04-10T17:21:52.339Z,16.13
2023-04-10T17:24:22.788Z,16.03
2023-04-10T17:26:51.704Z,15.94
2023-04-10T17:29:22.407Z,16.08
2023-04-10T17:31:51.316Z,16.02
2023-04-10T17:34:20.203Z,15.98
2023-04-10T17:36:49.760Z,15.99
2023-04-10T17:39:18.826Z,15.83
2023-04-10T17:41:49.153Z,15.91
2023-04-10T17:44:18.234Z,15.60
2023-04-10T17:46:47.491Z,15.23
2023-04-10T17:49:16.441Z,15.33
2023-04-10T17:51:45.491Z,14.99
2023-04-10T17:54:14.406Z,15.33
2023-04-10T17:56:43.710Z,15.42
2023-04-10T17:59:14.355Z,15.31
2023-04-10T18:01:43.558Z,15.36
2023-04-10T18:04:12.991Z,15.00
2023-04-10T18:06:42.380Z,15.16
2023-04-10T18:09:11.565Z,15.25
2023-04-10T18:11:41.085Z,15.05
2023-04-10T18:14:10.828Z,15.07
2023-04-10T18:16:41.839Z,15.31
2023-04-10T18:19:11.115Z,14.98
2023-04-10T18:21:41.977Z,14.98
2023-04-10T18:24:15.714Z,15.15
2023-04-10T18:26:45.455Z,15.04
2023-04-10T18:29:15.001Z,15.03
2023-04-10T18:31:45.293Z,14.78
2023-04-10T18:34:14.668Z,14.90
2023-04-10T18:36:45.620Z,14.66
2023-04-10T18:39:18.215Z,14.70
2023-04-10T18:41:47.113Z,14.59
2023-04-10T18:44:16.695Z,14.71
2023-04-10T18:46:54.122Z,14.49
2023-04-10T18:49:31.516Z,14.79
2023-04-10T18:52:00.613Z,14.82
2023-04-10T18:54:30.803Z,14.82
2023-04-10T18:56:59.749Z,14.69
2023-04-10T18:59:30.978Z,14.67
2023-04-10T19:02:04.446Z,14.58
2023-04-10T19:04:34.908Z,15.11
2023-04-10T19:07:04.266Z,14.96
2023-04-10T19:09:33.755Z,14.69
2023-04-10T19:12:02.705Z,14.77
2023-04-10T19:14:32.501Z,14.66
2023-04-10T19:17:06.138Z,14.52
2023-04-10T19:19:38.397Z,14.65
2023-04-10T19:22:07.077Z,14.64
2023-04-10T19:24:36.508Z,14.68
2023-04-10T19:27:05.482Z,14.54
2023-04-10T19:29:34.596Z,14.36
2023-04-10T19:32:05.923Z,14.36
2023-04-10T19:34:34.698Z,14.46
2023-04-10T19:37:04.938Z,14.46
2023-04-10T19:39:33.543Z,14.49
2023-04-10T19:42:03.268Z,14.60
2023-04-10T19:44:32.307Z,14.53
2023-04-10T19:47:01.191Z,14.65
2023-04-10T19:49:35.772Z,14.74
2023-04-10T19:52:04.766Z,14.54
2023-04-10T19:54:33.420Z,14.46
2023-04-10T19:57:02.831Z,14.39
2023-04-10T19:59:32.021Z,14.42
2023-04-10T20:02:01.362Z,14.39
2023-04-10T20:04:30.837Z,13.97
2023-04-10T20:07:04.952Z,13.86
2023-04-10T20:09:34.068Z,13.75
2023-04-10T20:12:06.532Z,14.28
2023-04-10T20:14:45.042Z,14.19
2023-04-10T20:17:13.817Z,14.25
2023-04-10T20:19:42.885Z,14.26
2023-04-10T20:22:12.968Z,14.36
2023-04-10T20:24:41.915Z,14.09
2023-04-10T20:27:10.613Z,14.16
2023-04-10T20:29:39.304Z,14.25
2023-04-10T20:32:09.727Z,14.09
2023-04-10T20:34:38.674Z,13.96
2023-04-10T20:37:07.314Z,13.74
2023-04-10T20:39:38.521Z,13.70
2023-04-10T20:42:07.566Z,13.59
2023-04-10T20:44:37.701Z,13.39
2023-04-10T20:47:06.883Z,13.29
2023-04-10T20:49:37.436Z,13.43
2023-04-10T20:52:06.912Z,13.51
2023-04-10T20:54:37.326Z,13.42
2023-04-10T20:57:06.496Z,13.48
2023-04-10T20:59:37.377Z,13.22
2023-04-10T21:02:06.484Z,13.22
2023-04-10T21:04:35.161Z,13.11
2023-04-10T21:07:03.811Z,13.20
2023-04-10T21:09:32.781Z,13.27
2023-04-10T21:12:02.762Z,12.77
2023-04-10T21:14:31.556Z,12.50
2023-04-10T21:17:00.566Z,12.47
2023-04-10T21:19:32.102Z,12.54
2023-04-10T21:22:01.126Z,12.55
2023-04-10T21:24:30.164Z,12.63
2023-04-10T21:26:58.814Z,12.54
2023-04-10T21:29:29.220Z,12.62
2023-04-10T21:31:58.255Z,12.30
2023-04-10T21:34:27.071Z,12.21
2023-04-10T21:36:55.966Z,12.24
2023-04-10T21:39:24.581Z,12.22
2023-04-10T21:41:53.510Z,12.23
2023-04-10T21:44:22.204Z,12.08
2023-04-10T21:46:52.177Z,11.73
2023-04-10T21:49:21.044Z,11.97
2023-04-10T21:51:49.737Z,11.71
2023-04-10T21:54:18.428Z,11.69
2023-04-10T21:56:47.453Z,11.38
2023-04-10T21:59:16.193Z,11.52
2023-04-10T22:01:45.135Z,11.37
2023-04-10T22:04:15.763Z,10.87
2023-04-10T22:06:44.505Z,10.93
2023-04-10T22:09:13.707Z,11.19
2023-04-10T22:11:42.851Z,11.40
2023-04-10T22:14:17.051Z,11.35
2023-04-10T22:16:47.099Z,11.19
2023-04-10T22:19:17.100Z,11.11
2023-04-10T22:21:45.763Z,10.99
2023-04-10T22:24:14.769Z,11.13
2023-04-10T22:26:46.004Z,11.03
2023-04-10T22:29:17.959Z,10.99
2023-04-10T22:31:46.690Z,10.95
2023-04-10T22:34:16.988Z,10.63
2023-04-10T22:36:45.685Z,10.65
2023-04-10T22:39:15.134Z,10.74
2023-04-10T22:41:44.313Z,10.49
2023-04-10T22:44:13.566Z,11.12
2023-04-10T22:46:42.377Z,10.76
2023-04-10T22:49:11.416Z,10.93
2023-04-10T22:51:41.809Z,10.55
2023-04-10T22:54:10.580Z,10.59
2023-04-10T22:56:39.710Z,10.92
2023-04-10T22:59:08.420Z,10.73
2023-04-10T23:01:37.154Z,10.68
2023-04-10T23:04:06.240Z,10.61
2023-04-10T23:06:34.891Z,10.46
2023-04-10T23:09:05.067Z,10.73
2023-04-10T23:11:36.606Z,10.49
2023-04-10T23:14:05.086Z,10.45
2023-04-10T23:16:33.938Z,10.40
2023-04-10T23:19:02.557Z,10.43
2023-04-10T23:21:31.617Z,10.21
2023-04-10T23:24:00.548Z,10.46
2023-04-10T23:26:32.382Z,10.24
2023-04-10T23:29:01.739Z,10.40
2023-04-10T23:31:30.496Z,10.40
2023-04-10T23:33:59.174Z,10.30
2023-04-10T23:36:28.254Z,10.27
2023-04-10T23:38:56.870Z,10.11
2023-04-10T23:41:25.621Z,9.82
2023-04-10T23:43:56.034Z,10.11
2023-04-10T23:46:24.832Z,10.08
2023-04-10T23:48:54.512Z,10.11
2023-04-10T23:51:23.528Z,10.06
2023-04-10T23:53:52.516Z,9.98
2023-04-10T23:56:21.600Z,9.83
2023-04-10T23:58:53.341Z,9.90
